Time;durP1;ratioP1;P1;durP2;ratioP2;P2;SDS_P1;SDS_P2;PMS_P1;PMS_P2;Temp;Humidity;BMP_temperature;BMP_pressure;BME280_temperature;BME280_humidity;BME280_pressure;Samples;Min_cycle;Max_cycle;Signal;HPM_P1;HPM_P2
2022/12/06 00:00:03;;;;;;;20.40;18.70;;;;;;;8.15;100.00;100421.25;342218;28;1848;-77
2022/12/06 00:00:14;;;;;;;20.40;18.70;;;;;;;8.15;100.00;100426.47;343339;28;1111;-77
2022/12/06 00:00:25;;;;;;;20.42;18.73;;;;;;;8.14;100.00;100420.41;344714;28;1242;-77
2022/12/06 00:00:35;;;;;;;20.60;18.90;;;;;;;8.15;100.00;100429.06;342125;28;1397;-77
2022/12/06 00:00:46;;;;;;;20.58;18.88;;;;;;;8.14;100.00;100420.41;341064;28;1110;-77
2022/12/06 00:01:11;;;;;;;20.50;18.80;;;;;;;8.14;100.00;100423.00;342174;28;1362;-77
2022/12/06 00:01:35;;;;;;;20.70;18.90;;;;;;;8.12;100.00;100424.78;340584;29;1498;-75
2022/12/06 00:01:46;;;;;;;20.42;18.73;;;;;;;8.13;100.00;100421.28;336881;29;1036;-75
2022/12/06 00:01:56;;;;;;;20.38;18.75;;;;;;;8.14;100.00;100423.00;339303;29;1244;-75
2022/12/06 00:02:07;;;;;;;20.20;18.60;;;;;;;8.14;100.00;100429.97;337580;29;1276;-75
2022/12/06 00:02:17;;;;;;;20.20;18.60;;;;;;;8.13;100.00;100423.88;338199;29;900;-77
2022/12/06 00:02:28;;;;;;;20.20;18.60;;;;;;;8.13;100.00;100429.09;337509;29;1480;-76
2022/12/06 00:02:38;;;;;;;20.50;18.80;;;;;;;8.13;100.00;100420.44;338281;29;928;-76
2022/12/06 00:02:48;;;;;;;20.40;18.70;;;;;;;8.13;100.00;100425.63;338139;29;1289;-76
2022/12/06 00:02:59;;;;;;;20.35;18.70;;;;;;;8.12;100.00;100423.91;334030;29;4237;-76
2022/12/06 00:03:10;;;;;;;20.30;18.70;;;;;;;8.12;100.00;100422.16;332632;29;3340;-76
2022/12/06 00:03:21;;;;;;;20.27;18.67;;;;;;;8.12;100.00;100422.16;333114;29;1932;-78
2022/12/06 00:03:31;;;;;;;20.10;18.50;;;;;;;8.12;100.00;100424.78;335272;29;3316;-76
2022/12/06 00:03:42;;;;;;;19.95;18.35;;;;;;;8.12;100.00;100423.91;341700;28;1520;-76
2022/12/06 00:03:54;;;;;;;19.95;18.35;;;;;;;8.12;100.00;100424.78;337863;29;1553;-76
2022/12/06 00:04:10;;;;;;;20.10;18.50;;;;;;;8.12;100.00;100419.56;335198;29;2326;-76
2022/12/06 00:04:20;;;;;;;20.13;18.52;;;;;;;8.12;100.00;100419.56;336810;29;1323;-76
2022/12/06 00:04:31;;;;;;;19.80;18.30;;;;;;;8.11;100.00;100416.97;336811;29;1187;-79
2022/12/06 00:04:41;;;;;;;19.90;18.30;;;;;;;8.11;100.00;100422.19;337559;29;1556;-76
2022/12/06 00:04:52;;;;;;;20.03;18.43;;;;;;;8.12;100.00;100418.69;338758;29;906;-76
2022/12/06 00:05:02;;;;;;;20.30;18.60;;;;;;;8.11;100.00;100417.84;339464;29;954;-76
2022/12/06 00:05:13;;;;;;;20.40;18.70;;;;;;;8.12;100.00;100430.00;333586;29;1318;-76
2022/12/06 00:05:23;;;;;;;20.33;18.63;;;;;;;8.13;100.00;100420.44;332773;29;1395;-75
2022/12/06 00:05:33;;;;;;;20.20;18.60;;;;;;;8.12;100.00;100424.78;330817;29;1874;-76
2022/12/06 00:05:44;;;;;;;20.15;18.55;;;;;;;8.12;100.00;100422.16;332977;29;967;-76
2022/12/06 00:06:02;;;;;;;20.30;18.70;;;;;;;8.11;100.00;100422.19;333462;29;1798;-76
2022/12/06 00:06:15;;;;;;;20.60;18.90;;;;;;;8.12;100.00;100427.38;326867;30;1101;-76
2022/12/06 00:06:28;;;;;;;20.55;18.85;;;;;;;8.10;100.00;100421.34;325175;30;1964;-76
2022/12/06 00:06:40;;;;;;;20.20;18.60;;;;;;;8.12;100.00;100419.56;323655;30;1653;-76
2022/12/06 00:06:50;;;;;;;20.10;18.50;;;;;;;8.10;100.00;100421.34;320703;30;1497;-77
2022/12/06 00:07:01;;;;;;;20.10;18.50;;;;;;;8.10;100.00;100418.72;320955;30;1368;-77
2022/12/06 00:07:12;;;;;;;20.10;18.50;;;;;;;8.10;100.00;100421.34;321782;30;1156;-77
2022/12/06 00:07:22;;;;;;;20.15;18.55;;;;;;;8.10;100.00;100423.94;323549;30;1941;-77
2022/12/06 00:07:32;;;;;;;20.10;18.50;;;;;;;8.12;100.00;100423.91;322140;30;2099;-77
2022/12/06 00:07:43;;;;;;;20.10;18.50;;;;;;;8.10;100.00;100426.56;317461;31;1537;-77
2022/12/06 00:07:55;;;;;;;20.20;18.60;;;;;;;8.10;100.00;100420.47;316163;30;2404;-77
2022/12/06 00:08:05;;;;;;;20.20;18.60;;;;;;;8.10;100.00;100418.72;311998;31;2515;-77
2022/12/06 00:08:15;;;;;;;20.07;18.47;;;;;;;8.11;100.00;100422.19;311953;31;819;-77
2022/12/06 00:08:26;;;;;;;20.00;18.40;;;;;;;8.10;100.00;100421.34;310073;31;2528;-76
2022/12/06 00:08:36;;;;;;;19.97;18.37;;;;;;;8.10;100.00;100421.34;309517;31;2642;-76
2022/12/06 00:08:47;;;;;;;20.10;18.50;;;;;;;8.10;100.00;100420.47;310707;31;1287;-76
2022/12/06 00:08:58;;;;;;;20.40;18.80;;;;;;;8.10;100.00;100425.69;307343;32;1222;-77
2022/12/06 00:09:14;;;;;;;20.30;18.70;;;;;;;8.10;100.00;100426.56;310352;31;1654;-75
2022/12/06 00:09:29;;;;;;;20.13;18.52;;;;;;;8.09;100.00;100424.84;308931;31;1810;-76
2022/12/06 00:09:39;;;;;;;20.10;18.50;;;;;;;8.10;100.00;100421.34;305694;32;2493;-76
2022/12/06 00:09:50;;;;;;;20.10;18.50;;;;;;;8.09;100.00;100430.03;305668;31;2671;-75
2022/12/06 00:10:00;;;;;;;20.10;18.50;;;;;;;8.09;100.00;100421.38;306269;32;1204;-76
2022/12/06 00:10:11;;;;;;;20.20;18.60;;;;;;;8.09;100.00;100419.63;306638;32;3212;-77
2022/12/06 00:10:21;;;;;;;20.25;18.65;;;;;;;8.09;100.00;100424.84;304747;32;3423;-76
2022/12/06 00:10:34;;;;;;;20.13;18.53;;;;;;;8.09;100.00;100430.03;304326;32;833;-76
2022/12/06 00:10:46;;;;;;;20.00;18.45;;;;;;;8.09;100.00;100422.22;301074;32;1205;-76
2022/12/06 00:11:05;;;;;;;19.83;18.30;;;;;;;8.09;100.00;100426.56;296909;32;3036;-76
2022/12/06 00:11:23;;;;;;;19.95;18.35;;;;;;;8.09;100.00;100419.63;293026;33;1650;-76
2022/12/06 00:11:34;;;;;;;19.90;18.30;;;;;;;8.08;100.00;100425.72;292788;33;2855;-76
2022/12/06 00:11:45;;;;;;;19.75;18.25;;;;;;;8.08;100.00;100423.09;292874;33;1384;-76
2022/12/06 00:11:56;;;;;;;19.75;18.25;;;;;;;8.09;100.00;100423.97;289610;33;3421;-76
2022/12/06 00:12:06;;;;;;;19.77;18.27;;;;;;;8.07;100.00;100426.59;285812;33;4321;-75
2022/12/06 00:12:16;;;;;;;20.10;18.50;;;;;;;8.07;100.00;100426.59;287130;34;3244;-76
2022/12/06 00:12:27;;;;;;;20.40;18.80;;;;;;;8.07;100.00;100421.38;288952;33;4398;-76
2022/12/06 00:12:37;;;;;;;20.30;18.70;;;;;;;8.07;100.00;100421.38;291372;33;4770;-76
2022/12/06 00:12:48;;;;;;;20.00;18.50;;;;;;;8.07;100.00;100421.38;291223;33;4207;-76
2022/12/06 00:12:58;;;;;;;19.60;18.10;;;;;;;8.07;100.00;100426.59;287459;34;848;-75
2022/12/06 00:13:08;;;;;;;19.70;18.20;;;;;;;8.07;100.00;100416.19;286715;34;4217;-75
2022/12/06 00:13:19;;;;;;;19.70;18.20;;;;;;;8.07;100.00;100416.19;286202;34;3397;-76
2022/12/06 00:13:29;;;;;;;19.50;18.00;;;;;;;8.07;100.00;100421.38;289157;34;1289;-76
2022/12/06 00:13:40;;;;;;;19.40;17.90;;;;;;;8.08;100.00;100422.25;284262;34;2986;-79
2022/12/06 00:14:04;;;;;;;19.40;17.90;;;;;;;8.06;100.00;100416.19;283251;34;4359;-76
2022/12/06 00:14:15;;;;;;;18.48;17.10;;;;;;;8.08;100.00;100422.25;283592;34;1065;-76
2022/12/06 00:14:26;;;;;;;12.55;11.68;;;;;;;8.07;100.00;100416.19;283696;34;6148;-76
2022/12/06 00:14:36;;;;;;;8.32;7.75;;;;;;;8.07;100.00;100420.53;283888;34;5924;-76
2022/12/06 00:14:46;;;;;;;5.63;5.27;;;;;;;8.06;100.00;100424.88;286034;34;884;-76
2022/12/06 00:14:57;;;;;;;9.40;8.75;;;;;;;8.08;100.00;100422.25;282105;34;6719;-76
2022/12/06 00:15:07;;;;;;;12.50;11.60;;;;;;;8.07;100.00;100417.91;282135;34;5698;-76
2022/12/06 00:15:18;;;;;;;16.23;15.02;;;;;;;8.07;100.00;100417.91;281357;34;4903;-76
2022/12/06 00:15:28;;;;;;;13.93;12.93;;;;;;;8.07;100.00;100413.56;278998;35;1309;-76
2022/12/06 00:15:38;;;;;;;10.95;10.18;;;;;;;8.08;100.00;100423.09;278652;34;4362;-76
2022/12/06 00:15:50;;;;;;;7.43;6.93;;;;;;;8.08;100.00;100420.50;275527;35;5385;-76
2022/12/06 00:16:02;;;;;;;6.25;5.85;;;;;;;8.07;100.00;100418.78;275558;35;1531;-76
2022/12/06 00:16:14;;;;;;;10.48;9.70;;;;;;;8.07;100.00;100410.97;273167;36;840;-76
2022/12/06 00:16:24;;;;;;;15.40;14.25;;;;;;;8.08;100.00;100417.03;270932;36;7912;-77
2022/12/06 00:16:35;;;;;;;18.50;17.10;;;;;;;8.08;100.00;100412.69;270178;36;8860;-77
2022/12/06 00:16:45;;;;;;;17.70;16.35;;;;;;;8.09;100.00;100413.53;271065;36;1277;-76
2022/12/06 00:16:56;;;;;;;12.60;11.67;;;;;;;8.08;100.00;100415.28;271373;36;8921;-76
2022/12/06 00:17:06;;;;;;;10.55;9.77;;;;;;;8.08;100.00;100417.03;270658;36;10685;-78
2022/12/06 00:18:56;;;;;;;4.50;4.21;;;;;;;8.08;100.00;100412.69;2500887;27;20272;-76
2022/12/06 00:19:06;;;;;;;3.28;3.08;;;;;;;8.07;100.00;100416.19;353076;28;983;-77
2022/12/06 00:19:17;;;;;;;9.23;8.57;;;;;;;8.07;100.00;100416.19;353273;28;923;-76
2022/12/06 00:19:28;;;;;;;9.68;8.98;;;;;;;8.06;100.00;100411.84;348811;28;1493;-76
2022/12/06 00:19:38;;;;;;;8.87;8.27;;;;;;;8.07;100.00;100413.56;348702;28;1594;-75
2022/12/06 00:19:50;;;;;;;3.83;3.60;;;;;;;8.06;100.00;100414.44;348795;28;1217;-77
2022/12/06 00:20:00;;;;;;;3.20;3.00;;;;;;;8.05;100.00;100415.34;347272;28;1290;-76
2022/12/06 00:20:11;;;;;;;2.50;2.40;;;;;;;8.06;100.00;100414.44;346716;28;990;-75
2022/12/06 00:20:21;;;;;;;7.27;6.77;;;;;;;8.06;100.00;100414.44;348891;28;1153;-75
2022/12/06 00:20:32;;;;;;;10.75;9.98;;;;;;;8.06;100.00;100417.06;349225;28;1034;-77
2022/12/06 00:20:42;;;;;;;16.20;15.00;;;;;;;8.07;100.00;100415.31;349802;28;931;-76
2022/12/06 00:20:53;;;;;;;17.20;15.90;;;;;;;8.07;100.00;100410.97;348766;28;911;-76
2022/12/06 00:21:10;;;;;;;19.40;17.90;;;;;;;8.06;100.00;100411.84;351563;28;1328;-76
2022/12/06 00:21:23;;;;;;;19.10;17.70;;;;;;;8.07;100.00;100410.97;346639;28;4210;-76
2022/12/06 00:21:34;;;;;;;19.10;17.70;;;;;;;8.07;100.00;100407.50;348599;28;3349;-75
2022/12/06 00:21:46;;;;;;;19.42;17.92;;;;;;;8.06;100.00;100418.81;348934;28;1948;-77
2022/12/06 00:21:56;;;;;;;18.77;17.38;;;;;;;8.06;100.00;100414.44;348199;28;3438;-76
2022/12/06 00:22:06;;;;;;;14.73;13.65;;;;;;;8.07;100.00;100417.91;347422;28;1337;-76
2022/12/06 00:22:17;;;;;;;8.53;7.97;;;;;;;8.06;100.00;100419.66;348843;28;1018;-75
2022/12/06 00:22:27;;;;;;;3.60;3.40;;;;;;;8.07;100.00;100416.19;350308;28;1289;-75
2022/12/06 00:22:43;;;;;;;2.77;2.60;;;;;;;8.06;100.00;100413.59;350217;28;1251;-75
2022/12/06 00:22:56;;;;;;;8.32;7.72;;;;;;;8.05;100.00;100417.94;347498;28;1437;-77
2022/12/06 00:23:07;;;;;;;7.72;7.18;;;;;;;8.05;100.00;100417.94;348550;28;1361;-75
2022/12/06 00:23:17;;;;;;;3.60;3.40;;;;;;;8.05;100.00;100412.75;346371;28;1299;-75
2022/12/06 00:23:27;;;;;;;2.00;1.90;;;;;;;8.07;100.00;100416.19;346173;28;1182;-75
2022/12/06 00:23:39;;;;;;;2.22;2.13;;;;;;;8.07;100.00;100416.19;346042;28;925;-75
2022/12/06 00:23:51;;;;;;;2.17;2.08;;;;;;;8.08;100.00;100415.28;344766;28;1461;-75
2022/12/06 00:24:12;;;;;;;2.50;2.38;;;;;;;8.08;100.00;100412.69;346270;28;896;-76
2022/12/06 00:24:23;;;;;;;13.82;12.82;;;;;;;8.07;100.00;100404.88;344717;28;958;-75
2022/12/06 00:24:33;;;;;;;18.70;17.30;;;;;;;8.08;100.00;100412.69;342533;28;1655;-75
2022/12/06 00:24:43;;;;;;;18.85;17.45;;;;;;;8.08;100.00;100412.69;343079;28;1565;-75
2022/12/06 00:24:54;;;;;;;19.10;17.70;;;;;;;8.09;100.00;100416.16;347003;28;1073;-75
2022/12/06 00:25:04;;;;;;;19.50;18.00;;;;;;;8.09;100.00;100413.53;346741;28;1295;-75
2022/12/06 00:25:15;;;;;;;19.73;18.20;;;;;;;8.08;100.00;100412.69;347583;28;1517;-75
2022/12/06 00:25:25;;;;;;;20.00;18.40;;;;;;;8.07;100.00;100410.97;346232;28;1115;-75
2022/12/06 00:25:36;;;;;;;19.93;18.33;;;;;;;8.07;100.00;100410.97;343400;28;1288;-75
2022/12/06 00:25:46;;;;;;;20.15;18.55;;;;;;;8.06;100.00;100414.44;342008;28;1233;-75
2022/12/06 00:25:59;;;;;;;20.30;18.70;;;;;;;8.07;100.00;100416.19;344748;28;1711;-75
2022/12/06 00:26:10;;;;;;;20.90;19.20;;;;;;;8.06;100.00;100414.44;342174;28;1276;-75
2022/12/06 00:26:20;;;;;;;20.83;19.13;;;;;;;8.07;100.00;100415.31;342278;28;1636;-76
2022/12/06 00:26:31;;;;;;;20.70;19.00;;;;;;;8.06;100.00;100417.06;343547;28;1005;-75
2022/12/06 00:26:43;;;;;;;20.23;18.63;;;;;;;8.06;100.00;100419.66;342198;28;814;-75
2022/12/06 00:26:53;;;;;;;20.15;18.55;;;;;;;8.06;100.00;100411.84;340699;28;1386;-75
2022/12/06 00:27:03;;;;;;;20.20;18.60;;;;;;;8.08;100.00;100412.69;342573;28;1480;-75
2022/12/06 00:27:14;;;;;;;20.20;18.60;;;;;;;8.07;100.00;100410.97;340776;29;1283;-75
2022/12/06 00:27:24;;;;;;;20.20;18.60;;;;;;;8.08;100.00;100417.03;339557;29;894;-76
2022/12/06 00:27:35;;;;;;;20.17;18.57;;;;;;;8.09;100.00;100424.84;339190;29;1505;-76
2022/12/06 00:27:45;;;;;;;20.20;18.60;;;;;;;8.09;100.00;100410.94;337939;29;1914;-74
2022/12/06 00:27:55;;;;;;;20.20;18.60;;;;;;;8.07;100.00;100410.97;338794;29;1215;-74
2022/12/06 00:28:06;;;;;;;20.20;18.60;;;;;;;8.08;100.00;100415.28;337848;29;927;-74
2022/12/06 00:28:16;;;;;;;20.30;18.70;;;;;;;8.08;100.00;100412.69;339320;29;1275;-74
2022/12/06 00:28:26;;;;;;;20.20;18.60;;;;;;;8.07;100.00;100416.19;339469;29;1159;-74
2022/12/06 00:28:37;;;;;;;20.13;18.52;;;;;;;8.08;100.00;100412.69;339277;29;1242;-75
2022/12/06 00:28:50;;;;;;;20.05;18.45;;;;;;;8.09;100.00;100416.16;333491;29;1531;-76
2022/12/06 00:29:00;;;;;;;20.13;18.52;;;;;;;8.08;100.00;100412.69;331027;29;1853;-75
2022/12/06 00:29:12;;;;;;;20.20;18.60;;;;;;;8.09;100.00;100413.53;335714;29;886;-75
2022/12/06 00:29:23;;;;;;;20.27;18.67;;;;;;;8.08;100.00;100412.69;328504;29;2375;-75
2022/12/06 00:29:33;;;;;;;20.00;18.40;;;;;;;8.08;100.00;100412.69;328677;29;1935;-75
2022/12/06 00:29:44;;;;;;;20.00;18.40;;;;;;;8.07;100.00;100424.00;330254;29;1625;-75
2022/12/06 00:29:54;;;;;;;20.00;18.40;;;;;;;8.08;100.00;100417.03;329272;30;958;-75
2022/12/06 00:30:05;;;;;;;20.10;18.50;;;;;;;8.09;100.00;100408.34;326703;29;1533;-75
2022/12/06 00:30:16;;;;;;;20.10;18.50;;;;;;;8.08;100.00;100417.91;327567;29;1050;-75
2022/12/06 00:30:26;;;;;;;20.00;18.40;;;;;;;8.07;100.00;100416.19;326826;30;3570;-75
2022/12/06 00:30:37;;;;;;;20.00;18.40;;;;;;;8.08;100.00;100407.47;324471;30;4950;-76
2022/12/06 00:30:47;;;;;;;19.90;18.38;;;;;;;8.08;100.00;100417.91;324424;30;1809;-76
2022/12/06 00:30:58;;;;;;;20.30;18.70;;;;;;;8.07;100.00;100415.31;326678;30;1966;-76
2022/12/06 00:31:14;;;;;;;20.42;18.83;;;;;;;8.07;100.00;100410.97;322324;30;3302;-76
2022/12/06 00:31:25;;;;;;;20.15;18.55;;;;;;;8.07;100.00;100405.75;323483;30;1088;-76
2022/12/06 00:31:35;;;;;;;20.10;18.50;;;;;;;8.07;100.00;100415.31;325200;30;2820;-75
2022/12/06 00:31:46;;;;;;;20.00;18.40;;;;;;;8.07;100.00;100410.09;324912;30;2524;-75
2022/12/06 00:31:56;;;;;;;20.10;18.50;;;;;;;8.06;100.00;100409.25;325762;30;1345;-76
2022/12/06 00:32:07;;;;;;;19.90;18.40;;;;;;;8.06;100.00;100411.84;322871;30;2406;-76
2022/12/06 00:32:17;;;;;;;19.60;18.10;;;;;;;8.06;100.00;100414.44;321678;30;1472;-76
2022/12/06 00:32:28;;;;;;;19.27;17.83;;;;;;;8.06;100.00;100419.66;325650;30;1279;-76
2022/12/06 00:32:38;;;;;;;19.33;17.88;;;;;;;8.06;100.00;100411.84;322159;30;1637;-76
2022/12/06 00:32:48;;;;;;;19.47;17.97;;;;;;;8.06;100.00;100414.44;322078;30;2097;-76
2022/12/06 00:32:59;;;;;;;19.43;17.93;;;;;;;8.06;100.00;100408.38;322148;30;1368;-76
2022/12/06 00:33:09;;;;;;;19.40;17.90;;;;;;;8.06;100.00;100414.44;313932;31;1290;-76
2022/12/06 00:33:19;;;;;;;19.20;17.80;;;;;;;8.05;100.00;100412.75;316088;31;2660;-76
2022/12/06 00:33:30;;;;;;;19.20;17.80;;;;;;;8.05;100.00;100407.53;316860;31;3353;-76
2022/12/06 00:33:40;;;;;;;19.20;17.80;;;;;;;8.06;100.00;100409.25;315271;31;815;-76
2022/12/06 00:33:51;;;;;;;19.38;17.90;;;;;;;8.04;100.00;100411.00;313518;31;3959;-76
2022/12/06 00:34:01;;;;;;;19.47;17.97;;;;;;;8.06;100.00;100408.38;309769;31;3261;-76
2022/12/06 00:34:13;;;;;;;19.60;18.10;;;;;;;8.05;100.00;100407.53;310741;31;878;-76
2022/12/06 00:34:23;;;;;;;19.60;18.10;;;;;;;8.05;100.00;100404.91;312392;31;2839;-75
2022/12/06 00:34:34;;;;;;;19.50;18.00;;;;;;;8.05;100.00;100402.31;312431;31;2055;-75
2022/12/06 00:34:44;;;;;;;19.42;17.92;;;;;;;8.05;100.00;100402.31;313229;31;2478;-74
2022/12/06 00:34:55;;;;;;;19.40;17.90;;;;;;;8.05;100.00;100406.66;310674;31;1182;-74
2022/12/06 00:35:06;;;;;;;19.33;17.83;;;;;;;8.06;100.00;100413.59;311212;31;2910;-74
2022/12/06 00:35:16;;;;;;;19.27;17.80;;;;;;;8.06;100.00;100409.25;307985;31;3534;-75
2022/12/06 00:35:26;;;;;;;19.40;17.90;;;;;;;8.08;100.00;100411.81;308493;32;911;-76
2022/12/06 00:35:37;;;;;;;19.60;18.10;;;;;;;8.06;100.00;100404.03;309049;31;3744;-75
2022/12/06 00:35:56;;;;;;;19.60;18.10;;;;;;;8.06;100.00;100404.03;307748;31;4313;-75
2022/12/06 00:36:10;;;;;;;19.27;17.88;;;;;;;8.06;100.00;100409.25;309657;31;4982;-76
2022/12/06 00:36:22;;;;;;;19.30;17.90;;;;;;;8.07;100.00;100405.75;307049;31;4410;-75
2022/12/06 00:36:37;;;;;;;19.50;18.00;;;;;;;8.06;100.00;100398.81;304534;32;4425;-77
2022/12/06 00:36:47;;;;;;;19.33;17.90;;;;;;;8.06;100.00;100401.41;307994;31;2598;-74
2022/12/06 00:36:58;;;;;;;19.10;17.70;;;;;;;8.07;100.00;100404.88;308799;31;1254;-75
2022/12/06 00:37:08;;;;;;;18.95;17.55;;;;;;;8.07;100.00;100405.75;306448;31;3579;-74
2022/12/06 00:37:19;;;;;;;18.80;17.40;;;;;;;8.06;100.00;100401.41;308032;31;4992;-74
2022/12/06 00:37:29;;;;;;;18.80;17.40;;;;;;;8.07;100.00;100404.88;307389;32;2532;-74
2022/12/06 00:37:39;;;;;;;19.07;17.67;;;;;;;8.07;100.00;100405.75;301093;32;1520;-77
2022/12/06 00:37:50;;;;;;;19.40;17.90;;;;;;;8.07;100.00;100405.75;298354;32;5446;-76
2022/12/06 00:38:00;;;;;;;19.50;18.00;;;;;;;8.07;100.00;100403.13;297362;32;5967;-75
2022/12/06 00:38:10;;;;;;;19.57;18.07;;;;;;;8.06;100.00;100398.81;298086;33;1215;-75
2022/12/06 00:38:21;;;;;;;19.50;18.00;;;;;;;8.08;100.00;100407.47;294852;33;6952;-74
2022/12/06 00:38:33;;;;;;;19.30;17.90;;;;;;;8.06;100.00;100404.03;292920;33;6380;-74
2022/12/06 00:38:43;;;;;;;19.20;17.80;;;;;;;8.06;100.00;100398.81;292220;33;1587;-76
2022/12/06 00:38:54;;;;;;;18.90;17.50;;;;;;;8.06;100.00;100403.16;296897;33;4746;-76
2022/12/06 00:39:09;;;;;;;19.10;17.70;;;;;;;8.05;100.00;100399.69;293911;33;4085;-76
2022/12/06 00:39:20;;;;;;;19.40;17.95;;;;;;;8.05;100.00;100393.63;289489;33;6325;-76
2022/12/06 00:39:30;;;;;;;19.50;18.00;;;;;;;8.05;100.00;100399.69;285990;34;7846;-76
2022/12/06 00:39:41;;;;;;;19.50;18.00;;;;;;;8.05;100.00;100406.66;281459;34;5955;-76
2022/12/06 00:39:51;;;;;;;19.50;18.00;;;;;;;8.05;100.00;100396.22;280735;34;7607;-75
2022/12/06 00:40:02;;;;;;;19.83;18.33;;;;;;;8.05;100.00;100401.44;283101;34;8437;-75
2022/12/06 00:40:12;;;;;;;19.77;18.27;;;;;;;8.05;100.00;100399.69;284394;34;2067;-75
2022/12/06 00:40:23;;;;;;;19.80;18.30;;;;;;;8.05;100.00;100397.09;278454;34;8946;-76
2022/12/06 00:40:33;;;;;;;19.23;17.83;;;;;;;8.06;100.00;100397.97;276680;35;9973;-75
2022/12/06 00:40:43;;;;;;;19.20;17.80;;;;;;;8.05;100.00;100396.22;278751;35;1241;-75
2022/12/06 00:42:51;;;;;;;19.09;17.66;;;;;;;8.08;100.00;100390.97;2495053;27;20354;-75
2022/12/06 00:43:01;;;;;;;18.67;17.27;;;;;;;8.08;100.00;100396.19;351503;28;1441;-75
2022/12/06 00:43:12;;;;;;;18.50;17.13;;;;;;;8.08;100.00;100394.44;348954;28;935;-75
2022/12/06 00:43:22;;;;;;;18.70;17.30;;;;;;;8.07;100.00;100395.31;348856;28;855;-76
2022/12/06 00:43:33;;;;;;;18.70;17.30;;;;;;;8.07;100.00;100400.53;347506;28;1251;-75
2022/12/06 00:43:43;;;;;;;18.73;17.33;;;;;;;8.07;100.00;100400.53;350325;28;1413;-75
2022/12/06 00:43:53;;;;;;;18.80;17.40;;;;;;;8.09;100.00;100397.91;348993;28;1321;-75
2022/12/06 00:44:04;;;;;;;19.03;17.63;;;;;;;8.07;100.00;100389.25;348981;28;927;-75
2022/12/06 00:44:14;;;;;;;19.20;17.80;;;;;;;8.07;100.00;100395.31;347364;28;1324;-75
2022/12/06 00:44:25;;;;;;;19.10;17.70;;;;;;;8.08;100.00;100394.44;348823;28;1311;-75
2022/12/06 00:44:35;;;;;;;19.10;17.70;;;;;;;8.07;100.00;100395.31;347623;28;1484;-75
2022/12/06 00:44:46;;;;;;;18.90;17.50;;;;;;;8.07;100.00;100392.72;346687;28;1657;-75
2022/12/06 00:44:56;;;;;;;18.90;17.50;;;;;;;8.07;100.00;100397.94;346964;28;1500;-76
2022/12/06 00:45:07;;;;;;;18.90;17.50;;;;;;;8.07;100.00;100392.72;346248;28;1428;-75
2022/12/06 00:45:17;;;;;;;18.90;17.50;;;;;;;8.07;100.00;100397.94;348128;28;1363;-76
2022/12/06 00:45:28;;;;;;;18.97;17.57;;;;;;;8.07;100.00;100394.47;348450;28;1213;-75
2022/12/06 00:45:38;;;;;;;18.93;17.53;;;;;;;8.07;100.00;100394.47;349043;28;885;-75
2022/12/06 00:45:49;;;;;;;19.08;17.67;;;;;;;8.06;100.00;100396.22;350528;28;1901;-76
2022/12/06 00:45:59;;;;;;;19.10;17.70;;;;;;;8.07;100.00;100403.13;348988;28;1416;-76
2022/12/06 00:46:12;;;;;;;19.25;17.85;;;;;;;8.07;100.00;100395.31;346242;28;1212;-75
2022/12/06 00:46:27;;;;;;;19.30;17.90;;;;;;;8.06;100.00;100388.38;348425;28;1182;-75
2022/12/06 00:46:37;;;;;;;19.30;17.90;;;;;;;8.06;100.00;100388.38;347496;28;1512;-75
2022/12/06 00:46:48;;;;;;;19.23;17.83;;;;;;;8.07;100.00;100395.31;348041;28;961;-75
2022/12/06 00:46:58;;;;;;;19.48;17.98;;;;;;;8.07;100.00;100400.53;347442;28;1498;-76
2022/12/06 00:47:08;;;;;;;19.50;18.00;;;;;;;8.06;100.00;100393.59;346751;28;1414;-76
2022/12/06 00:47:19;;;;;;;19.50;18.00;;;;;;;8.06;100.00;100397.97;343361;28;1298;-75
2022/12/06 00:47:29;;;;;;;19.53;18.03;;;;;;;8.07;100.00;100391.84;343328;28;1360;-75
2022/12/06 00:47:40;;;;;;;19.50;18.00;;;;;;;8.06;100.00;100393.59;346232;28;1334;-75
2022/12/06 00:47:50;;;;;;;19.40;17.90;;;;;;;8.06;100.00;100391.00;344916;28;928;-75
2022/12/06 00:48:00;;;;;;;19.40;17.90;;;;;;;8.06;100.00;100393.59;348455;28;1312;-75
2022/12/06 00:48:11;;;;;;;19.48;17.98;;;;;;;8.08;100.00;100386.63;346201;28;1344;-75
2022/12/06 00:48:21;;;;;;;19.57;18.07;;;;;;;8.07;100.00;100389.25;343579;28;905;-75
2022/12/06 00:48:32;;;;;;;19.60;18.10;;;;;;;8.07;100.00;100387.50;348854;28;853;-75
2022/12/06 00:48:43;;;;;;;19.50;18.00;;;;;;;8.07;100.00;100390.09;349048;28;1439;-75
2022/12/06 00:48:54;;;;;;;19.33;17.90;;;;;;;8.08;100.00;100388.38;343117;28;4036;-75
2022/12/06 00:49:05;;;;;;;19.30;17.90;;;;;;;8.08;100.00;100391.81;343926;28;3288;-75
2022/12/06 00:49:15;;;;;;;19.85;18.35;;;;;;;8.08;100.00;100391.81;342417;28;1711;-75
2022/12/06 00:49:26;;;;;;;19.80;18.30;;;;;;;8.07;100.00;100390.09;344467;28;3151;-76
2022/12/06 00:49:36;;;;;;;19.75;18.25;;;;;;;8.07;100.00;100384.91;341929;28;1469;-76
2022/12/06 00:49:47;;;;;;;19.23;17.83;;;;;;;8.08;100.00;100386.63;343779;28;953;-76
2022/12/06 00:49:57;;;;;;;19.23;17.83;;;;;;;8.07;100.00;100384.91;342120;28;1356;-76
2022/12/06 00:50:08;;;;;;;19.00;17.60;;;;;;;8.08;100.00;100386.63;342228;28;841;-75
2022/12/06 00:50:18;;;;;;;18.85;17.45;;;;;;;8.08;100.00;100394.44;342181;28;980;-75
2022/12/06 00:50:29;;;;;;;18.80;17.40;;;;;;;8.08;100.00;100391.81;343221;28;1377;-75
2022/12/06 00:50:39;;;;;;;19.00;17.60;;;;;;;8.08;100.00;100386.63;341671;28;1285;-76
2022/12/06 00:50:49;;;;;;;19.20;17.80;;;;;;;8.07;100.00;100384.91;342758;28;1264;-75
2022/12/06 00:51:00;;;;;;;19.43;17.93;;;;;;;8.08;100.00;100386.63;339845;28;1333;-75
2022/12/06 00:51:11;;;;;;;19.50;18.00;;;;;;;8.08;100.00;100389.22;339301;28;1461;-75
2022/12/06 00:51:22;;;;;;;19.50;18.00;;;;;;;8.07;100.00;100390.09;338309;29;1214;-75
2022/12/06 00:51:32;;;;;;;19.10;17.70;;;;;;;8.07;100.00;100387.50;336399;29;2059;-75
2022/12/06 00:51:43;;;;;;;18.90;17.50;;;;;;;8.07;100.00;100384.91;334924;29;1477;-75
2022/12/06 00:51:53;;;;;;;18.80;17.40;;;;;;;8.07;100.00;100391.84;339348;29;1214;-75
2022/12/06 00:52:04;;;;;;;18.90;17.50;;;;;;;8.08;100.00;100386.63;340506;29;1358;-75
2022/12/06 00:52:14;;;;;;;19.02;17.63;;;;;;;8.08;100.00;100385.75;341156;28;1258;-75
2022/12/06 00:52:24;;;;;;;19.00;17.60;;;;;;;8.08;100.00;100391.81;342154;28;1190;-76
2022/12/06 00:52:35;;;;;;;19.00;17.60;;;;;;;8.08;100.00;100391.81;339497;29;1223;-76
2022/12/06 00:52:45;;;;;;;19.00;17.60;;;;;;;8.07;100.00;100382.28;340921;28;1497;-75
2022/12/06 00:52:56;;;;;;;18.98;17.58;;;;;;;8.08;100.00;100391.81;339629;28;1535;-75
2022/12/06 00:53:06;;;;;;;19.00;17.60;;;;;;;8.08;100.00;100388.38;344914;28;923;-75
2022/12/06 00:53:16;;;;;;;19.33;17.92;;;;;;;8.08;100.00;100386.63;342660;28;1834;-75
2022/12/06 00:53:27;;;;;;;19.70;18.20;;;;;;;8.08;100.00;100386.63;341625;28;2037;-75
2022/12/06 00:53:37;;;;;;;19.67;18.17;;;;;;;8.08;100.00;100389.22;342099;28;1412;-75
2022/12/06 00:53:48;;;;;;;19.60;18.10;;;;;;;8.08;100.00;100388.38;338493;29;2314;-75
2022/12/06 00:53:58;;;;;;;19.50;18.00;;;;;;;8.08;100.00;100386.63;336653;29;1862;-76
2022/12/06 00:54:09;;;;;;;19.70;18.20;;;;;;;8.09;100.00;100387.47;340716;29;1300;-76
2022/12/06 00:54:19;;;;;;;19.70;18.20;;;;;;;8.09;100.00;100388.34;338117;29;1216;-75
2022/12/06 00:54:30;;;;;;;19.77;18.27;;;;;;;8.08;100.00;100381.41;335536;29;1488;-75
2022/12/06 00:54:40;;;;;;;19.50;18.00;;;;;;;8.09;100.00;100385.72;330654;29;1784;-75
2022/12/06 00:54:50;;;;;;;19.30;17.90;;;;;;;8.08;100.00;100381.41;330996;29;867;-75
2022/12/06 00:55:01;;;;;;;19.40;18.00;;;;;;;8.08;100.00;100384.00;330633;29;2161;-75
2022/12/06 00:55:11;;;;;;;19.50;18.10;;;;;;;8.09;100.00;100382.25;329569;29;2339;-75
2022/12/06 00:55:21;;;;;;;19.50;18.10;;;;;;;8.09;100.00;100383.13;329375;30;1050;-76